Overview Statistics Trail Chart Weather Telemetry Raw packets
 

This is the latest recevied weather packets stored in our database for station/object KD2FKI. If no packets are shown the sender has not sent any weather packets the latest 10 day(s).

<< 7 8 9 10 11 12 13 >>
Time Temp. Humidity Pressure Rain* Wind** Luminosity Snow
1788290131 35° C 54% - 0 mm - - -
1788289529 34.44° C 53% - 0 mm - - -
1788288927 34.44° C 53% - 0 mm - - -
1788288325 35° C 51% - 0 mm - - -
1788287724 36.11° C 48% - 0 mm - - -
1788287122 39.44° C 42% - 0 mm - - -
1788286548 39.44° C 42% - 0 mm - - -
1788285938 38.33° C 45% - 0 mm - - -
1788285331 38.33° C 43% - 0 mm - - -
1788284729 39.44° C 42% - 0 mm - - -
1788284126 37.22° C 49% - 0 mm - - -
1788283528 36.67° C 47% - 0 mm - - -
1788282922 35.56° C 52% - 0 mm - - -
1788282321 35° C 52% - 0 mm - - -
1788281736 36.67° C 48% - 0 mm - - -
1788281134 37.22° C 46% - 0 mm - - -
1788280531 36.67° C 48% - 0 mm - - -
1788279931 35.56° C 50% - 0 mm - - -
1788279327 34.44° C 52% - 0 mm - - -
1788278724 36.11° C 49% - 0 mm - - -
1788278125 37.22° C 46% - 0 mm - - -
1788277520 36.67° C 51% - 0 mm - - -
1788276946 36.11° C 49% - 0 mm - - -
1788276333 35° C 53% - 0 mm - - -
1788275749 34.44° C 54% - 0 mm - - -

* Rain latest hour (hover to see other rain measurements)
** Current wind speed in m/s (hover to see current wind gust speed)